createdAt,value
2023-03-06T07:23:47.958Z,99922.59
2023-03-06T07:26:23.438Z,99927.81
2023-03-06T07:29:01.604Z,99922.38
2023-03-06T07:31:41.623Z,99923.06
2023-03-06T07:34:16.731Z,99914.31
2023-03-06T07:36:49.970Z,99919.38
2023-03-06T07:39:28.220Z,99922.19
2023-03-06T07:42:01.073Z,99921.25
2023-03-06T07:44:41.377Z,99918.53
2023-03-06T07:47:17.859Z,99923.75
2023-03-06T07:49:48.112Z,99928.34
2023-03-06T07:52:18.391Z,99926.69
2023-03-06T07:54:52.799Z,99928.91
2023-03-06T07:57:28.308Z,99926.22
2023-03-06T07:59:57.253Z,99936.22
2023-03-06T08:02:44.162Z,99925.34
2023-03-06T08:05:21.443Z,99928.13
2023-03-06T08:07:59.341Z,99935.88
2023-03-06T08:10:33.476Z,99931.94
2023-03-06T08:13:13.759Z,99937.13
2023-03-06T08:16:04.098Z,99932.69
2023-03-06T08:18:40.396Z,99938.34
2023-03-06T08:21:26.014Z,99934.28
2023-03-06T08:24:07.639Z,99944.81
2023-03-06T08:26:39.374Z,99943.59
2023-03-06T08:29:15.646Z,99938.38
2023-03-06T08:31:57.384Z,99944.88
2023-03-06T08:34:30.119Z,99943.69
2023-03-06T08:37:10.692Z,99948.81
2023-03-06T08:39:43.731Z,99942.38
2023-03-06T08:42:18.801Z,99944.41
2023-03-06T08:44:51.387Z,99940.75
2023-03-06T08:47:27.824Z,99943.59
2023-03-06T08:50:02.064Z,99947.22
2023-03-06T08:52:35.399Z,99942.75
2023-03-06T08:55:06.498Z,99946.03
2023-03-06T08:57:48.659Z,99946.38
2023-03-06T09:00:33.297Z,99946.41
2023-03-06T09:03:12.718Z,99947.19
2023-03-06T09:05:46.720Z,99948.38
2023-03-06T09:08:25.563Z,99945.94
2023-03-06T09:11:03.011Z,99943.16
2023-03-06T09:13:39.801Z,99948.03
2023-03-06T09:16:19.698Z,99950.84
2023-03-06T09:18:54.418Z,99946.00
2023-03-06T09:21:28.750Z,99942.75
2023-03-06T09:24:12.731Z,99941.53
2023-03-06T09:26:46.745Z,99942.38
2023-03-06T09:29:25.259Z,99934.25
2023-03-06T09:31:59.040Z,99929.81
2023-03-06T09:34:37.923Z,99930.94
2023-03-06T09:37:11.508Z,99930.84
2023-03-06T09:39:41.905Z,99936.78
2023-03-06T09:42:21.152Z,99933.78
2023-03-06T09:44:56.203Z,99923.00
2023-03-06T09:47:58.411Z,99935.22
2023-03-06T09:50:42.929Z,99927.34
2023-03-06T09:53:22.575Z,99924.63
2023-03-06T09:56:01.497Z,99925.91
2023-03-06T09:58:41.209Z,99925.34
2023-03-06T10:01:23.521Z,99926.31
2023-03-06T10:04:12.170Z,99921.47
2023-03-06T10:06:49.900Z,99914.22
2023-03-06T10:09:23.040Z,99922.44
2023-03-06T10:12:15.160Z,99917.78
2023-03-06T10:14:58.137Z,99926.34
2023-03-06T10:17:36.162Z,99928.53
2023-03-06T10:20:28.556Z,99925.59
2023-03-06T10:23:03.090Z,99933.53
2023-03-06T10:25:44.571Z,99929.03
2023-03-06T10:28:29.981Z,99921.13
2023-03-06T10:31:06.228Z,99915.78
2023-03-06T10:33:49.177Z,99914.06
2023-03-06T10:36:18.974Z,99912.97
2023-03-06T10:38:49.647Z,99915.78
2023-03-06T10:41:25.552Z,99917.06
2023-03-06T10:44:04.940Z,99908.72
2023-03-06T10:46:46.929Z,99910.03
2023-03-06T10:49:17.480Z,99908.44
2023-03-06T10:52:00.687Z,99901.22
2023-03-06T10:54:39.895Z,99898.66
2023-03-06T10:57:31.993Z,99894.66
2023-03-06T11:00:09.732Z,99889.69
2023-03-06T11:02:42.467Z,99891.09
2023-03-06T11:05:22.530Z,99894.06
2023-03-06T11:08:02.108Z,99892.06
2023-03-06T11:10:38.371Z,99890.41
2023-03-06T11:13:25.266Z,99888.00
2023-03-06T11:16:20.238Z,99881.78
2023-03-06T11:19:18.862Z,99877.06
2023-03-06T11:22:04.033Z,99882.19
2023-03-06T11:24:51.995Z,99867.81
2023-03-06T11:27:35.070Z,99876.97
2023-03-06T11:30:13.161Z,99874.78
2023-03-06T11:32:53.961Z,99864.13
2023-03-06T11:35:29.559Z,99865.00
2023-03-06T11:38:14.711Z,99861.00
2023-03-06T11:40:54.251Z,99865.56
2023-03-06T11:43:43.455Z,99854.81
2023-03-06T11:46:34.374Z,99860.72
2023-03-06T11:49:17.019Z,99859.53
2023-03-06T11:51:55.275Z,99858.47
2023-03-06T11:54:25.357Z,99855.31
2023-03-06T11:57:06.664Z,99846.94
2023-03-06T11:59:51.431Z,99838.63
2023-03-06T12:02:39.575Z,99836.19
2023-03-06T12:05:22.689Z,99832.13
2023-03-06T12:08:29.069Z,99824.16
2023-03-06T12:11:35.937Z,99822.59
2023-03-06T12:14:32.466Z,99815.28
2023-03-06T12:17:24.661Z,99810.94
2023-03-06T12:20:21.773Z,99811.38
2023-03-06T12:23:14.175Z,99800.06
2023-03-06T12:26:00.692Z,99789.56
2023-03-06T12:28:54.370Z,99781.00
2023-03-06T12:31:53.155Z,99778.25
2023-03-06T12:34:26.376Z,99775.50
2023-03-06T12:37:11.542Z,99772.78
2023-03-06T12:39:56.275Z,99766.97
2023-03-06T12:43:02.100Z,99769.38
2023-03-06T12:45:34.778Z,99765.44
2023-03-06T12:48:07.169Z,99767.81
2023-03-06T12:50:44.561Z,99763.00
2023-03-06T12:53:24.103Z,99756.19
2023-03-06T12:55:58.357Z,99759.50
2023-03-06T12:58:31.679Z,99746.16
2023-03-06T13:01:24.556Z,99753.88
2023-03-06T13:04:05.134Z,99746.56
2023-03-06T13:06:50.893Z,99740.56
2023-03-06T13:09:45.544Z,99741.72
2023-03-06T13:12:36.952Z,99738.03
2023-03-06T13:15:43.077Z,99734.91
2023-03-06T13:18:33.326Z,99725.69
2023-03-06T13:21:04.536Z,99725.63
2023-03-06T13:23:32.628Z,99718.06
2023-03-06T13:26:08.168Z,99720.47
2023-03-06T13:28:51.230Z,99717.66
2023-03-06T13:31:37.096Z,99707.56
2023-03-06T13:34:38.435Z,99706.75
2023-03-06T13:37:23.181Z,99712.34
2023-03-06T13:39:57.378Z,99707.56
2023-03-06T13:42:36.546Z,99707.56
2023-03-06T13:45:27.626Z,99705.13
2023-03-06T13:48:33.907Z,99706.81
2023-03-06T13:50:58.884Z,99704.38
2023-03-06T13:54:02.614Z,99702.63
2023-03-06T13:56:51.344Z,99698.72
2023-03-06T13:59:43.608Z,99689.66
2023-03-06T14:02:30.015Z,99683.88
2023-03-06T14:05:11.295Z,99675.28
2023-03-06T14:08:11.741Z,99663.16
2023-03-06T14:10:39.567Z,99674.41
2023-03-06T14:13:22.657Z,99671.00
2023-03-06T14:15:53.213Z,99672.41
2023-03-06T14:18:26.957Z,99667.81
2023-03-06T14:21:06.398Z,99653.19
2023-03-06T14:23:42.535Z,99660.47
2023-03-06T14:26:17.760Z,99659.94
2023-03-06T14:29:06.323Z,99655.25
2023-03-06T14:31:42.615Z,99645.28
2023-03-06T14:34:38.440Z,99643.63
2023-03-06T14:37:18.113Z,99643.63
2023-03-06T14:39:49.438Z,99647.47
2023-03-06T14:42:31.119Z,99636.72
2023-03-06T14:45:08.038Z,99641.81
2023-03-06T14:47:40.446Z,99637.31
2023-03-06T14:50:34.283Z,99644.19
2023-03-06T14:53:17.781Z,99648.66
2023-03-06T14:55:50.780Z,99641.44
2023-03-06T14:58:25.898Z,99631.97
2023-03-06T15:00:57.182Z,99637.81
2023-03-06T15:03:51.022Z,99634.78
2023-03-06T15:06:24.255Z,99637.97
2023-03-06T15:09:16.518Z,99635.72
2023-03-06T15:12:08.796Z,99644.69
2023-03-06T15:14:48.788Z,99626.38
2023-03-06T15:17:19.869Z,99626.19
2023-03-06T15:19:57.819Z,99627.25
2023-03-06T15:22:50.235Z,99622.94
2023-03-06T15:25:20.695Z,99624.22
2023-03-06T15:27:58.424Z,99619.44
2023-03-06T15:30:31.515Z,99620.09
2023-03-06T15:33:26.320Z,99620.53
2023-03-06T15:36:02.699Z,99620.34
2023-03-06T15:38:46.779Z,99623.09
2023-03-06T15:41:33.510Z,99624.03
2023-03-06T15:44:08.609Z,99623.81
2023-03-06T15:46:41.393Z,99616.09
2023-03-06T15:49:18.740Z,99621.25
2023-03-06T15:51:47.186Z,99622.56
2023-03-06T15:54:20.670Z,99618.63
2023-03-06T15:56:52.401Z,99611.38
2023-03-06T15:59:26.340Z,99606.47
2023-03-06T16:02:04.127Z,99610.44
2023-03-06T16:04:35.605Z,99606.44
2023-03-06T16:07:09.279Z,99607.16
2023-03-06T16:09:48.791Z,99609.16
2023-03-06T16:12:26.077Z,99612.63
2023-03-06T16:14:55.386Z,99602.66
2023-03-06T16:17:26.408Z,99608.16
2023-03-06T16:19:55.504Z,99604.06
2023-03-06T16:22:29.259Z,99609.34
2023-03-06T16:25:00.341Z,99609.44
2023-03-06T16:27:31.820Z,99605.34
2023-03-06T16:30:02.137Z,99607.91
2023-03-06T16:32:32.958Z,99606.91
2023-03-06T16:35:03.700Z,99611.41
2023-03-06T16:37:36.890Z,99610.59
2023-03-06T16:40:22.434Z,99608.56
2023-03-06T16:42:52.749Z,99609.94
2023-03-06T16:45:25.632Z,99612.63
2023-03-06T16:48:00.143Z,99609.78
2023-03-06T16:50:41.486Z,99614.56
2023-03-06T16:53:12.515Z,99606.97
2023-03-06T16:55:48.220Z,99613.84
2023-03-06T16:58:19.200Z,99604.78
2023-03-06T17:00:54.625Z,99615.81
2023-03-06T17:03:25.935Z,99610.59
2023-03-06T17:05:56.079Z,99606.13
2023-03-06T17:08:30.363Z,99614.03
2023-03-06T17:11:00.897Z,99609.88
2023-03-06T17:13:29.723Z,99609.59
2023-03-06T17:16:02.113Z,99616.75
2023-03-06T17:18:32.651Z,99613.72
2023-03-06T17:21:03.861Z,99614.94
2023-03-06T17:23:31.864Z,99620.84
2023-03-06T17:26:04.292Z,99619.22
2023-03-06T17:28:36.948Z,99622.53
2023-03-06T17:31:17.450Z,99621.66
2023-03-06T17:34:08.839Z,99629.41
2023-03-06T17:36:39.322Z,99626.38
2023-03-06T17:39:13.026Z,99638.69
2023-03-06T17:41:47.207Z,99631.00
2023-03-06T17:44:19.851Z,99633.47
2023-03-06T17:46:52.281Z,99637.56
2023-03-06T17:49:23.260Z,99643.00
2023-03-06T17:52:02.974Z,99640.50
2023-03-06T17:54:31.158Z,99640.56
2023-03-06T17:57:03.693Z,99639.53
2023-03-06T17:59:37.947Z,99643.16
2023-03-06T18:02:12.406Z,99636.34
2023-03-06T18:04:45.418Z,99642.06
2023-03-06T18:07:16.924Z,99647.72
2023-03-06T18:09:48.989Z,99636.78
2023-03-06T18:12:19.340Z,99636.50
2023-03-06T18:14:50.714Z,99639.72
2023-03-06T18:17:21.057Z,99643.00
2023-03-06T18:19:52.126Z,99647.78
2023-03-06T18:22:19.386Z,99651.03
2023-03-06T18:24:46.974Z,99646.34
2023-03-06T18:27:19.482Z,99650.44
2023-03-06T18:29:47.172Z,99652.19
2023-03-06T18:32:14.938Z,99659.91
2023-03-06T18:34:47.502Z,99658.34
2023-03-06T18:37:14.976Z,99657.91
2023-03-06T18:39:45.817Z,99650.31
2023-03-06T18:42:13.552Z,99655.16
2023-03-06T18:44:41.365Z,99657.03
2023-03-06T18:47:11.599Z,99655.53
2023-03-06T18:49:45.993Z,99655.03
2023-03-06T18:52:16.330Z,99660.44
2023-03-06T18:54:50.904Z,99662.03
2023-03-06T18:57:21.267Z,99660.44
2023-03-06T18:59:56.242Z,99666.91
2023-03-06T19:02:24.196Z,99671.81
2023-03-06T19:04:55.488Z,99676.66
2023-03-06T19:07:26.064Z,99671.03
2023-03-06T19:09:55.828Z,99671.44
2023-03-06T19:12:25.715Z,99672.97
2023-03-06T19:14:55.724Z,99671.03
2023-03-06T19:17:26.842Z,99668.56
2023-03-06T19:19:55.428Z,99663.00
2023-03-06T19:22:25.975Z,99672.63
2023-03-06T19:24:55.928Z,99661.41
2023-03-06T19:27:25.713Z,99669.41
2023-03-06T19:29:53.352Z,99668.59
2023-03-06T19:32:23.218Z,99668.31
2023-03-06T19:34:51.102Z,99664.50
2023-03-06T19:37:22.308Z,99663.66
2023-03-06T19:39:49.990Z,99670.97
2023-03-06T19:42:20.455Z,99667.63
2023-03-06T19:44:49.237Z,99668.00
2023-03-06T19:47:16.953Z,99666.03
2023-03-06T19:49:50.079Z,99661.19
2023-03-06T19:52:18.347Z,99660.47
2023-03-06T19:54:48.416Z,99664.13
2023-03-06T19:57:19.636Z,99665.38
2023-03-06T19:59:53.834Z,99657.34
2023-03-06T20:02:26.454Z,99660.56
2023-03-06T20:04:54.871Z,99657.81
2023-03-06T20:07:25.238Z,99662.69
2023-03-06T20:10:00.305Z,99661.16
2023-03-06T20:12:28.537Z,99660.00
2023-03-06T20:14:56.209Z,99662.41
2023-03-06T20:17:26.976Z,99653.16
2023-03-06T20:19:54.759Z,99659.75
2023-03-06T20:22:24.275Z,99657.69
2023-03-06T20:24:58.996Z,99657.66
2023-03-06T20:27:26.690Z,99656.84
2023-03-06T20:29:59.823Z,99660.94
2023-03-06T20:32:27.674Z,99661.75
2023-03-06T20:34:55.125Z,99659.75
2023-03-06T20:37:22.958Z,99660.56
2023-03-06T20:39:52.652Z,99667.38
2023-03-06T20:42:22.740Z,99666.59
2023-03-06T20:44:52.578Z,99665.72
2023-03-06T20:47:23.240Z,99670.56
2023-03-06T20:49:51.216Z,99666.59
2023-03-06T20:52:18.938Z,99670.16
2023-03-06T20:54:49.016Z,99670.22
2023-03-06T20:57:16.754Z,99669.06
2023-03-06T20:59:45.519Z,99668.22
2023-03-06T21:02:14.885Z,99665.34
2023-03-06T21:04:42.621Z,99672.59
2023-03-06T21:07:10.275Z,99667.00
2023-03-06T21:09:40.482Z,99672.69
2023-03-06T21:12:12.357Z,99679.50
2023-03-06T21:14:44.553Z,99680.22
2023-03-06T21:17:17.630Z,99672.22
2023-03-06T21:19:50.758Z,99674.66
2023-03-06T21:22:21.084Z,99673.69
2023-03-06T21:24:51.967Z,99679.72
2023-03-06T21:27:22.302Z,99678.94
2023-03-06T21:29:51.153Z,99669.28
2023-03-06T21:32:21.290Z,99671.31
2023-03-06T21:34:51.655Z,99669.63
2023-03-06T21:37:22.711Z,99672.00
2023-03-06T21:39:53.642Z,99674.09
2023-03-06T21:42:24.511Z,99678.09
2023-03-06T21:45:01.044Z,99675.28
2023-03-06T21:47:31.307Z,99670.06
2023-03-06T21:50:08.516Z,99673.78
2023-03-06T21:52:42.737Z,99679.41
2023-03-06T21:55:15.792Z,99677.38
2023-03-06T21:57:55.514Z,99674.50
2023-03-06T22:00:25.630Z,99680.31
2023-03-06T22:02:53.236Z,99688.31
2023-03-06T22:05:24.964Z,99686.22
2023-03-06T22:07:54.958Z,99681.53
2023-03-06T22:10:22.714Z,99683.16
2023-03-06T22:12:55.251Z,99685.22
2023-03-06T22:15:22.953Z,99680.44
2023-03-06T22:17:53.657Z,99679.69
2023-03-06T22:20:21.458Z,99675.22
2023-03-06T22:22:53.552Z,99682.50
2023-03-06T22:25:21.272Z,99674.06
2023-03-06T22:27:49.951Z,99675.25
2023-03-06T22:30:20.275Z,99675.69
2023-03-06T22:32:50.029Z,99672.47
2023-03-06T22:35:21.045Z,99680.97
2023-03-06T22:37:48.684Z,99682.97
2023-03-06T22:40:19.929Z,99694.25
2023-03-06T22:42:49.991Z,99694.22
2023-03-06T22:45:20.859Z,99699.06
2023-03-06T22:47:53.395Z,99694.25
2023-03-06T22:50:23.057Z,99685.78
2023-03-06T22:52:52.927Z,99686.19
2023-03-06T22:55:30.929Z,99685.38
2023-03-06T22:58:00.764Z,99680.16
2023-03-06T23:00:28.603Z,99678.53
2023-03-06T23:02:59.209Z,99677.72
2023-03-06T23:05:29.840Z,99678.91
2023-03-06T23:07:59.946Z,99681.34
2023-03-06T23:10:30.348Z,99684.16
2023-03-06T23:13:16.399Z,99690.97
2023-03-06T23:16:04.546Z,99684.16
2023-03-06T23:18:53.472Z,99693.47
2023-03-06T23:21:39.287Z,99703.59
2023-03-06T23:24:25.438Z,99701.53
2023-03-06T23:26:55.509Z,99702.69
2023-03-06T23:29:23.183Z,99709.91
2023-03-06T23:31:53.244Z,99709.91
2023-03-06T23:34:23.868Z,99705.47
2023-03-06T23:36:53.781Z,99706.25
2023-03-06T23:39:24.780Z,99711.06
2023-03-06T23:42:01.541Z,99712.75
2023-03-06T23:44:33.199Z,99707.56
2023-03-06T23:47:01.801Z,99710.34
2023-03-06T23:49:35.410Z,99713.22
2023-03-06T23:52:04.385Z,99705.91
2023-03-06T23:54:34.291Z,99703.13
2023-03-06T23:57:02.022Z,99712.41
2023-03-06T23:59:29.514Z,99703.19
